METAR Data
IDs: Format: Raw Decoded Include TAF

Data at: 0203 UTC 01 Mar 2021

LZTT 010200Z 26003KT 210V020 9999 FEW033 BKN046 M00/M04 Q1028